Latest Coastal Weather Observations for Lockhart River

IDQ60701

Issued at 4:52 am EST Sunday 2 October 2016 (issued every 10 minutes, with the page automatically refreshed every 10 minutes)

About coastal observations | Map of coastal stations | Coastal observations for QLD | Marine services | Other Formats
Station Details ID: 028008 Name: LOCKHART RIVER AIRPORT Lat: -12.79 Lon: 143.30 Height: 18.5 m
Data from the previous 72 hours. | See also: Recent months at Lockhart River
Date/Time
EST
Temp
°C
Wind Pressure Rain since
9am
mm
Weather Cloud Vis
km
Sea
Height
m
Swell
Dir  Spd
kts
Gust
kts
hPa Trend Height
m
Period
s
Dir
02/04:30am 23.5 WNW 2 4 1010.9 - 0.0 - Partly cloudy - - - - -
02/04:00am 25.8 E 3 5 1010.6 - 0.0 - Partly cloudy - - - - -
02/03:30am 26.0 E 3 5 1010.6 - 0.0 - Partly cloudy - - - - -
02/03:00am 26.1 E 4 6 1010.6 - 0.0 - Partly cloudy - - - - -
02/02:30am 26.1 E 5 7 1010.6 - 0.0 - Partly cloudy - - - - -
02/02:00am 26.1 E 5 9 1010.6 - 0.0 - Partly cloudy - - - - -
02/01:30am 26.3 E 5 9 1010.7 - 0.0 - Partly cloudy - - - - -
02/01:00am 26.2 E 5 9 1011.0 - 0.0 - Partly cloudy - - - - -
02/12:30am 26.4 E 6 9 1011.0 - 0.0 - Partly cloudy - - - - -
02/12:05am 26.6 E 6 10 1011.3 - 0.0 - Partly cloudy - - - - -
02/12:00am 26.6 E 6 9 1011.4 - 0.0 - Cloudy - - - - -
 
Date/Time
EST
Temp
°C
Wind Pressure Rain since
9am
mm
Weather Cloud Vis
km
Sea
Height
m
Swell
Dir  Spd
kts
Gust
kts
hPa Trend Height
m
Period
s
Dir
01/11:31pm 26.7 E 5 7 1011.5 - 0.0 - Partly cloudy - - - - -
01/11:30pm 26.7 E 5 7 1011.5 - 0.0 - Partly cloudy - - - - -
01/11:29pm 26.7 E 5 7 1011.5 - 0.0 - Partly cloudy - - - - -
01/11:00pm 26.7 E 5 7 1011.7 - 0.0 - Partly cloudy - - - - -
01/10:49pm 26.6 E 5 9 1011.8 - 0.0 - Partly cloudy - - - - -
01/10:30pm 26.6 ESE 6 9 1012.0 - 0.0 - Partly cloudy - - - - -
01/10:00pm 26.6 ESE 5 9 1012.1 - 0.0 - Partly cloudy - - - - -
01/09:30pm 26.6 ESE 5 7 1012.0 - 0.0 - Partly cloudy - - - - -
01/09:00pm 26.6 E 5 8 1011.7 - 0.0 - Cloudy - - - - -
01/08:30pm 26.5 E 6 8 1011.5 - 0.0 - Partly cloudy - - - - -
01/08:00pm 26.5 ESE 5 8 1011.3 - 0.0 - Partly cloudy - - - - -
01/07:30pm 26.6 E 4 6 1011.0 - 0.0 - Partly cloudy - - - - -
01/07:00pm 26.7 E 5 8 1010.7 - 0.0 - Partly cloudy - - - - -
01/06:30pm 26.6 E 5 8 1010.6 - 0.0 - Partly cloudy - - - - -
01/06:00pm 27.2 E 7 9 1010.7 - 0.0 - Mostly clear - - - - -
01/05:30pm 27.7 E 7 10 1010.6 - 0.0 - Partly cloudy - - - - -
01/05:00pm 27.7 E 9 13 1010.5 - 0.0 - Partly cloudy - - - - -
01/04:30pm 28.7 E 10 13 1010.3 - 0.0 - - - - - - -
01/04:00pm 29.5 E 8 11 1010.2 - 0.0 - - - - - - -
01/03:30pm 29.4 E 8 11 1010.4 - 0.0 - Partly cloudy - - - - -
01/03:00pm 28.9 E 8 13 1010.8 - 0.0 - Mostly clear - - - - -
01/02:30pm 29.4 E 10 14 1010.8 - 0.0 - - - - - - -
01/02:00pm 29.7 ESE 10 17 1011.1 - 0.0 - - - - - - -
01/01:30pm 29.1 E 9 13 1011.4 - 0.0 - - - - - - -
01/01:00pm 29.9 ENE 10 16 1011.8 - 0.0 - - - - - - -
01/12:30pm 30.2 E 9 14 1012.2 - 0.0 - - - - - - -
01/12:00pm 30.2 E 9 15 1012.7 - 0.0 - - - - - - -
01/11:30am 29.6 ENE 9 14 1013.0 - 0.0 - Partly cloudy - - - - -
01/11:00am 29.0 E 9 14 1013.2 - 0.0 - Partly cloudy - - - - -
01/10:30am 28.8 E 9 15 1013.4 - 0.0 - Partly cloudy - - - - -
01/10:00am 28.4 E 9 12 1013.5 - 0.0 - Partly cloudy - - - - -
01/09:30am 27.8 ESE 10 15 1013.6 - 0.0 - Partly cloudy - - - - -
01/09:00am 27.6 ESE 9 11 1013.5 - 0.0 - Partly cloudy - - - - -
01/08:30am 26.2 CALM 0 0 1013.2 - 0.0 - Partly cloudy - - - - -
01/08:00am 23.7 CALM 0 0 1013.0 - 0.0 - - - - - - -
01/07:30am 22.1 CALM 0 0 1012.8 - 0.0 - - - - - - -
01/07:00am 20.8 CALM 0 0 1012.5 - 0.0 - - - - - - -
01/06:30am 20.2 CALM 0 0 1012.1 - 0.0 - - - - - - -
01/06:00am 19.5 CALM 0 0 1011.6 - 0.0 - - - - - - -
01/05:30am 19.9 CALM 0 0 1011.1 - 0.0 - - - - - - -
01/05:00am 20.2 CALM 0 0 1010.7 - 0.0 - Partly cloudy - - - - -
01/04:30am 19.7 CALM 0 0 1010.3 - 0.0 - - - - - - -
01/04:00am 20.1 CALM 0 0 1010.1 - 0.0 - - - - - - -
01/03:30am 20.4 CALM 0 0 1010.1 - 0.0 - - - - - - -
01/03:00am 20.3 NW 1 4 1010.2 - 0.0 - Mostly clear - - - - -
01/02:30am 20.6 CALM 0 0 1010.5 - 0.0 - - - - - - -
01/02:00am 21.0 CALM 0 0 1010.4 - 0.0 - - - - - - -
01/01:30am 21.2 CALM 0 0 1010.7 - 0.0 - - - - - - -
01/01:00am 21.5 CALM 0 0 1011.0 - 0.0 - - - - - - -
01/12:30am 21.9 CALM 0 0 1011.2 - 0.0 - - - - - - -
01/12:00am 22.5 CALM 0 0 1011.5 - 0.0 - - - - - - -
 
Date/Time
EST
Temp
°C
Wind Pressure Rain since
9am
mm
Weather Cloud Vis
km
Sea
Height
m
Swell
Dir  Spd
kts
Gust
kts
hPa Trend Height
m
Period
s
Dir
30/11:30pm 22.9 CALM 0 0 1011.7 - 0.0 - Partly cloudy - - - - -
30/11:00pm 23.1 CALM 0 0 1011.8 - 0.0 - Cloudy - - - - -
30/10:30pm 23.2 CALM 0 0 1011.9 - 0.0 - Partly cloudy - - - - -
30/10:00pm 23.4 CALM 0 0 1012.0 - 0.0 - Partly cloudy - - - - -
30/09:30pm 23.6 N 3 4 1011.4 - 0.0 - Cloudy - - - - -
30/09:00pm 23.4 N 4 5 1011.3 - 0.0 - Cloudy - - - - -
30/08:30pm 23.6 WNW 5 8 1010.6 - 0.0 - Partly cloudy - - - - -
30/08:00pm 23.1 CALM 0 4 1009.6 - 0.0 - - - - - - -
30/07:30pm 24.0 NE 1 3 1009.2 - 0.0 - - - - - - -
30/07:00pm 25.3 CALM 0 3 1009.0 - 0.0 - - - - - - -
30/06:30pm 26.1 ENE 3 6 1008.5 - 0.0 - - - - - - -
30/06:00pm 26.7 ENE 5 8 1008.3 - 0.0 - - - - - - -
30/05:30pm 27.5 ENE 6 9 1008.2 - 0.0 - - - - - - -
30/05:00pm 28.3 ENE 8 11 1007.9 - 0.0 - - - - - - -
30/04:30pm 28.9 ENE 8 11 1007.6 - 0.0 - - - - - - -
30/04:00pm 29.2 E 9 13 1007.7 - 0.0 - - - - - - -
30/03:30pm 29.8 E 8 12 1007.9 - 0.0 - - - - - - -
30/03:00pm 30.5 ENE 7 11 1008.0 - 0.0 - - - - - - -
30/02:30pm 30.4 ENE 9 13 1008.3 - 0.0 - - - - - - -
30/02:00pm 30.6 E 8 12 1008.8 - 0.0 - - - - - - -
30/01:30pm 30.4 E 9 13 1009.1 - 0.0 - - - - - - -
30/01:00pm 30.2 ENE 9 13 1009.5 - 0.0 - - - - - - -
30/12:30pm 30.1 E 8 15 1010.0 - 0.0 - - - - - - -
30/12:00pm 30.4 E 8 12 1010.5 - 0.0 - - - - - - -
30/11:30am 29.5 E 7 11 1010.9 - 0.0 - - - - - - -
30/11:00am 29.6 ESE 6 9 1011.2 - 0.0 - - - - - - -
30/10:30am 29.6 ESE 8 11 1011.4 - 0.0 - - - - - - -
30/10:00am 29.1 E 1 6 1011.5 - 0.0 - Partly cloudy - - - - -
30/09:30am 27.4 W 3 5 1011.8 - 0.0 - Partly cloudy - - - - -
30/09:00am 26.7 WSW 3 5 1011.8 - 0.0 - - - - - - -
30/08:30am 25.6 WNW 3 5 1011.8 - 0.0 - - - - - - -
30/08:00am 23.0 W 3 4 1011.7 - 0.0 - - - - - - -
30/07:30am 20.8 CALM 0 0 1011.3 - 0.0 - - - - - - -
30/07:00am 19.5 CALM 0 0 1011.1 - 0.0 - - - - - - -
30/06:30am 18.6 CALM 0 0 1010.7 - 0.0 - - - - - - -
30/06:07am 18.4 CALM 0 0 1010.5 - 0.0 - Partly cloudy - - - - -
30/06:00am 18.5 CALM 0 0 1010.4 - 0.0 - Mostly clear - - - - -
30/05:49am 18.4 CALM 0 0 1010.3 - 0.0 - Partly cloudy - - - - -
30/05:30am 18.7 CALM 0 0 1010.2 - 0.0 - Partly cloudy - - - - -
30/05:00am 19.0 CALM 0 0 1009.6 - 0.0 - - - - - - -
30/04:30am 19.0 CALM 0 0 1009.5 - 0.0 - - - - - - -
30/04:00am 18.9 CALM 0 0 1009.5 - 0.0 - - - - - - -
30/03:30am 19.1 CALM 0 0 1009.7 - 0.0 - - - - - - -
30/03:00am 19.3 CALM 0 0 1009.7 - 0.0 - - - - - - -
30/02:30am 19.8 CALM 0 0 1009.9 - 0.0 - - - - - - -
30/02:00am 19.9 CALM 0 0 1010.0 - 0.0 - - - - - - -
30/01:30am 20.1 WNW 2 3 1010.4 - 0.0 - - - - - - -
30/01:00am 20.2 CALM 0 0 1010.7 - 0.0 - Partly cloudy - - - - -
30/12:30am 20.2 WNW 3 4 1010.9 - 0.0 - - - - - - -
30/12:00am 20.9 NW 2 3 1011.2 - 0.0 - Partly cloudy - - - - -
 
Date/Time
EST
Temp
°C
Wind Pressure Rain since
9am
mm
Weather Cloud Vis
km
Sea
Height
m
Swell
Dir  Spd
kts
Gust
kts
hPa Trend Height
m
Period
s
Dir
29/11:30pm 21.1 NW 3 4 1011.3 - 0.0 - Partly cloudy - - - - -
29/11:00pm 21.3 CALM 0 3 1011.3 - 0.0 - Partly cloudy - - - - -
29/10:30pm 21.1 WNW 5 7 1011.3 - 0.0 - Partly cloudy - - - - -
29/10:00pm 21.2 NW 1 4 1010.9 - 0.0 - - - - - - -
29/09:30pm 21.3 NNW 2 4 1010.8 - 0.0 - - - - - - -
29/09:00pm 21.6 CALM 0 0 1010.5 - 0.0 - - - - - - -
29/08:30pm 22.1 N 3 3 1010.1 - 0.0 - - - - - - -
29/08:00pm 22.6 CALM 0 4 1009.8 - 0.0 - - - - - - -
29/07:30pm 23.6 NE 2 4 1009.5 - 0.0 - Partly cloudy - - - - -
29/07:00pm 25.2 ENE 3 5 1009.2 - 0.0 - Partly cloudy - - - - -
29/06:30pm 26.0 E 4 6 1009.1 - 0.0 - - - - - - -
29/06:00pm 26.7 ENE 6 10 1008.6 - 0.0 - - - - - - -
29/05:30pm 27.3 E 7 12 1008.2 - 0.0 - - - - - - -
29/05:00pm 27.8 E 8 12 1008.1 - 0.0 - - - - - - -
29/04:30pm 28.4 E 7 12 1008.1 - 0.0 - - - - - - -
29/04:00pm 28.6 E 8 11 1007.9 - 0.0 - - - - - - -
29/03:30pm 28.7 E 8 12 1008.0 - 0.0 - - - - - - -
29/03:00pm 28.7 ENE 7 10 1008.2 - 0.0 - - - - - - -
29/02:30pm 28.9 E 8 11 1008.4 - 0.0 - Partly cloudy - - - - -
29/02:00pm 28.5 E 9 13 1008.6 - 0.0 - Partly cloudy - - - - -
29/01:30pm 29.6 ESE 8 13 1009.2 - 0.0 - Partly cloudy - - - - -
29/01:00pm 29.1 E 10 16 1009.3 - 0.0 - Partly cloudy - - - - -
29/12:30pm 28.8 ESE 10 14 1009.8 - 0.0 - Partly cloudy - - - - -
29/12:00pm 28.5 E 10 16 1010.2 - 0.0 - Cloudy - - - - -
29/11:30am 28.8 E 9 16 1010.4 - 0.0 - Partly cloudy - - - - -
29/11:00am 28.9 E 8 12 1010.9 - 0.0 - Partly cloudy - - - - -
29/10:30am 28.8 E 9 17 1011.1 - 0.0 - Partly cloudy - - - - -
29/10:00am 28.6 E 10 12 1011.4 - 0.0 - Partly cloudy - - - - -
29/09:30am 28.2 E 9 12 1011.7 - 0.0 - Partly cloudy - - - - -
29/09:00am 27.2 SSE 6 9 1011.8 - 0.0 - Cloudy - - - - -
29/08:30am 25.5 SSE 4 6 1012.0 - 0.0 - Partly cloudy - - - - -
29/08:00am 23.6 NW 2 4 1011.8 - 0.0 - Partly cloudy - - - - -
29/07:30am 22.2 CALM 0 0 1011.4 - 0.0 - Partly cloudy - - - - -
29/07:00am 20.9 CALM 0 0 1010.8 - 0.0 - Partly cloudy - - - - -
29/06:30am 20.3 CALM 0 0 1010.4 - 0.0 - Partly cloudy - - - - -
29/06:00am 20.1 S 3 4 1010.3 - 0.0 - Partly cloudy - - - - -
29/05:30am 20.2 CALM 0 0 1009.9 - 0.0 - Partly cloudy - - - - -
29/05:00am 20.6 CALM 0 0 1010.0 - 0.0 - Partly cloudy - - - - -

Other Formats:

Comma delimited format used in spreadsheet applications
http://www.bom.gov.au/fwo/IDQ60701/IDQ60701.94186.axf

JavaScript Object Notation format (JSON) in row-major order
http://www.bom.gov.au/fwo/IDQ60701/IDQ60701.94186.json